This is the latest recevied weather packets stored in our database for station/object OE-11121. If no packets are shown the sender has not sent any weather packets the latest 10 day(s).
| Time | Temp. | Humidity | Pressure | Rain* | Wind** | Luminosity | Snow |
|---|---|---|---|---|---|---|---|
| 1787676930 | 18.89° C | 78% | 1014.4 hPa | 0 mm | - | 48 W/m² | - |
| 1787676104 | 18.89° C | 77% | 1014.4 hPa | 0 mm | - | 48 W/m² | - |
| 1787675730 | 18.89° C | 77% | 1014.3 hPa | 0 mm | - | 60 W/m² | - |
| 1787675130 | 18.89° C | 79% | 1014.3 hPa | 0 mm | - | 84 W/m² | - |
| 1787674303 | 18.89° C | 79% | 1014.1 hPa | 0 mm | - | 108 W/m² | - |
| 1787673931 | 18.89° C | 79% | 1014.1 hPa | 0 mm | - | 108 W/m² | - |
| 1787673331 | 18.89° C | 81% | 1014 hPa | 0 mm | - | 252 W/m² | - |
| 1787672504 | 19.44° C | 80% | 1013.9 hPa | 0 mm | - | 312 W/m² | - |
| 1787672131 | 18.89° C | 80% | 1014 hPa | 0 mm | - | 228 W/m² | - |
| 1787671531 | 18.89° C | 78% | 1014 hPa | 0 mm | - | 168 W/m² | - |
| 1787670704 | 18.89° C | 78% | 1014 hPa | 0 mm | - | 156 W/m² | - |
| 1787670329 | 19.44° C | 77% | 1013.7 hPa | 0 mm | - | 192 W/m² | - |
| 1787669731 | 19.44° C | 77% | 1013.7 hPa | 0 mm | - | 252 W/m² | - |
| 1787668904 | 19.44° C | 78% | 1013.6 hPa | 0 mm | - | 312 W/m² | - |
| 1787668531 | 19.44° C | 79% | 1013.4 hPa | 0 mm | - | 156 W/m² | - |
| 1787667930 | 19.44° C | 78% | 1013.4 hPa | 0 mm | - | 240 W/m² | - |
| 1787667104 | 19.44° C | 78% | 1013.1 hPa | 0 mm | - | 397 W/m² | - |
| 1787666731 | 20° C | 78% | 1012.9 hPa | 0 mm | - | 385 W/m² | - |
| 1787666131 | 20.56° C | 77% | 1012.4 hPa | 0 mm | - | 781 W/m² | - |
| 1787665304 | 20° C | 78% | 1012.5 hPa | 0 mm | - | 673 W/m² | - |
| 1787664931 | 20.56° C | 78% | 1012.4 hPa | 0 mm | - | 877 W/m² | - |
| 1787664331 | 19.44° C | 78% | 1012.6 hPa | 0.25 mm | - | 781 W/m² | - |
| 1787663504 | 19.44° C | 85% | 1012.4 hPa | 0.51 mm | - | 733 W/m² | - |
| 1787663131 | 18.89° C | 85% | 1012.7 hPa | 0.76 mm | - | 312 W/m² | - |
| 1787662530 | 18.89° C | 87% | 1012.8 hPa | 1.02 mm | - | 288 W/m² | - |
* Rain latest hour (hover to see other rain measurements)
** Current wind speed in m/s (hover to see current wind gust speed)